sensor_id;sensor_type;location;lat;lon;timestamp;temperature;humidity
65207;SHT31;58477;48.072;11.970;2022-07-06T00:00:25;16.01;83.32
65207;SHT31;58477;48.072;11.970;2022-07-06T00:02:50;15.95;83.07
65207;SHT31;58477;48.072;11.970;2022-07-06T00:05:16;15.87;83.44
65207;SHT31;58477;48.072;11.970;2022-07-06T00:07:41;15.81;83.59
65207;SHT31;58477;48.072;11.970;2022-07-06T00:10:07;15.69;83.92
65207;SHT31;58477;48.072;11.970;2022-07-06T00:12:32;15.58;83.30
65207;SHT31;58477;48.072;11.970;2022-07-06T00:14:58;15.41;83.46
65207;SHT31;58477;48.072;11.970;2022-07-06T00:17:24;15.40;82.73
65207;SHT31;58477;48.072;11.970;2022-07-06T00:19:50;15.41;82.53
65207;SHT31;58477;48.072;11.970;2022-07-06T00:22:15;15.41;83.42
65207;SHT31;58477;48.072;11.970;2022-07-06T00:24:41;15.35;82.98
65207;SHT31;58477;48.072;11.970;2022-07-06T00:27:06;15.38;82.04
65207;SHT31;58477;48.072;11.970;2022-07-06T00:29:31;15.37;82.90
65207;SHT31;58477;48.072;11.970;2022-07-06T00:31:57;15.34;83.28
65207;SHT31;58477;48.072;11.970;2022-07-06T00:34:23;15.30;83.26
65207;SHT31;58477;48.072;11.970;2022-07-06T00:36:48;15.30;82.50
65207;SHT31;58477;48.072;11.970;2022-07-06T00:39:13;15.30;81.62
65207;SHT31;58477;48.072;11.970;2022-07-06T00:41:39;15.47;80.55
65207;SHT31;58477;48.072;11.970;2022-07-06T00:44:08;15.62;79.35
65207;SHT31;58477;48.072;11.970;2022-07-06T00:46:34;15.74;77.94
65207;SHT31;58477;48.072;11.970;2022-07-06T00:49:00;15.82;78.28
65207;SHT31;58477;48.072;11.970;2022-07-06T00:51:29;15.82;79.11
65207;SHT31;58477;48.072;11.970;2022-07-06T00:53:59;15.79;78.62
65207;SHT31;58477;48.072;11.970;2022-07-06T00:56:28;15.77;78.90
65207;SHT31;58477;48.072;11.970;2022-07-06T00:58:54;15.79;78.58
65207;SHT31;58477;48.072;11.970;2022-07-06T01:01:19;15.72;78.81
65207;SHT31;58477;48.072;11.970;2022-07-06T01:03:45;15.75;78.61
65207;SHT31;58477;48.072;11.970;2022-07-06T01:06:12;15.68;78.73
65207;SHT31;58477;48.072;11.970;2022-07-06T01:08:37;15.61;78.80
65207;SHT31;58477;48.072;11.970;2022-07-06T01:11:03;15.47;80.09
65207;SHT31;58477;48.072;11.970;2022-07-06T01:13:30;15.35;80.33
65207;SHT31;58477;48.072;11.970;2022-07-06T01:15:57;15.35;78.70
65207;SHT31;58477;48.072;11.970;2022-07-06T01:18:23;15.35;80.24
65207;SHT31;58477;48.072;11.970;2022-07-06T01:20:48;15.28;79.54
65207;SHT31;58477;48.072;11.970;2022-07-06T01:23:14;15.30;79.50
65207;SHT31;58477;48.072;11.970;2022-07-06T01:25:39;15.30;79.22
65207;SHT31;58477;48.072;11.970;2022-07-06T01:28:05;15.28;79.12
65207;SHT31;58477;48.072;11.970;2022-07-06T01:30:30;15.28;79.22
65207;SHT31;58477;48.072;11.970;2022-07-06T01:32:55;15.37;78.91
65207;SHT31;58477;48.072;11.970;2022-07-06T01:35:22;15.44;78.95
65207;SHT31;58477;48.072;11.970;2022-07-06T01:37:49;15.35;78.36
65207;SHT31;58477;48.072;11.970;2022-07-06T01:40:14;15.31;79.27
65207;SHT31;58477;48.072;11.970;2022-07-06T01:42:40;15.24;78.64
65207;SHT31;58477;48.072;11.970;2022-07-06T01:45:06;15.19;79.34
65207;SHT31;58477;48.072;11.970;2022-07-06T01:47:32;15.14;79.92
65207;SHT31;58477;48.072;11.970;2022-07-06T01:50:06;15.10;79.93
65207;SHT31;58477;48.072;11.970;2022-07-06T01:52:34;14.99;79.98
65207;SHT31;58477;48.072;11.970;2022-07-06T01:55:01;15.04;79.44
65207;SHT31;58477;48.072;11.970;2022-07-06T01:57:29;15.20;78.17
65207;SHT31;58477;48.072;11.970;2022-07-06T01:59:54;15.27;79.21
65207;SHT31;58477;48.072;11.970;2022-07-06T02:02:20;15.38;77.74
65207;SHT31;58477;48.072;11.970;2022-07-06T02:04:45;15.45;77.68
65207;SHT31;58477;48.072;11.970;2022-07-06T02:07:11;15.57;77.54
65207;SHT31;58477;48.072;11.970;2022-07-06T02:09:36;15.48;78.25
65207;SHT31;58477;48.072;11.970;2022-07-06T02:12:02;15.55;77.78
65207;SHT31;58477;48.072;11.970;2022-07-06T02:14:28;15.61;76.78
65207;SHT31;58477;48.072;11.970;2022-07-06T02:16:54;15.61;77.48
65207;SHT31;58477;48.072;11.970;2022-07-06T02:19:19;15.58;77.20
65207;SHT31;58477;48.072;11.970;2022-07-06T02:21:45;15.58;77.09
65207;SHT31;58477;48.072;11.970;2022-07-06T02:24:11;15.69;76.17
65207;SHT31;58477;48.072;11.970;2022-07-06T02:26:37;15.74;76.13
65207;SHT31;58477;48.072;11.970;2022-07-06T02:29:03;15.82;75.91
65207;SHT31;58477;48.072;11.970;2022-07-06T02:31:28;15.85;75.05
65207;SHT31;58477;48.072;11.970;2022-07-06T02:33:54;15.89;74.94
65207;SHT31;58477;48.072;11.970;2022-07-06T02:36:19;15.91;75.18
65207;SHT31;58477;48.072;11.970;2022-07-06T02:38:45;15.95;75.03
65207;SHT31;58477;48.072;11.970;2022-07-06T02:41:10;15.88;75.14
65207;SHT31;58477;48.072;11.970;2022-07-06T02:43:37;15.82;75.91
65207;SHT31;58477;48.072;11.970;2022-07-06T02:46:03;15.77;75.55
65207;SHT31;58477;48.072;11.970;2022-07-06T02:48:29;15.74;76.44
65207;SHT31;58477;48.072;11.970;2022-07-06T02:50:55;15.74;75.52
65207;SHT31;58477;48.072;11.970;2022-07-06T02:53:21;15.64;76.11
65207;SHT31;58477;48.072;11.970;2022-07-06T02:55:50;15.62;75.59
65207;SHT31;58477;48.072;11.970;2022-07-06T02:58:16;15.50;76.82
65207;SHT31;58477;48.072;11.970;2022-07-06T03:00:41;15.47;75.94
65207;SHT31;58477;48.072;11.970;2022-07-06T03:03:07;15.33;77.30
65207;SHT31;58477;48.072;11.970;2022-07-06T03:05:34;15.26;77.70
65207;SHT31;58477;48.072;11.970;2022-07-06T03:08:00;15.17;77.35
65207;SHT31;58477;48.072;11.970;2022-07-06T03:10:25;15.26;75.59
65207;SHT31;58477;48.072;11.970;2022-07-06T03:12:51;15.16;77.66
65207;SHT31;58477;48.072;11.970;2022-07-06T03:15:16;15.30;76.02
65207;SHT31;58477;48.072;11.970;2022-07-06T03:17:44;15.27;75.99
65207;SHT31;58477;48.072;11.970;2022-07-06T03:20:11;15.26;76.08
65207;SHT31;58477;48.072;11.970;2022-07-06T03:22:38;15.21;75.90
65207;SHT31;58477;48.072;11.970;2022-07-06T03:25:05;15.24;76.02
65207;SHT31;58477;48.072;11.970;2022-07-06T03:27:31;15.21;76.38
65207;SHT31;58477;48.072;11.970;2022-07-06T03:29:57;15.10;76.55
65207;SHT31;58477;48.072;11.970;2022-07-06T03:32:23;15.01;77.05
65207;SHT31;58477;48.072;11.970;2022-07-06T03:34:50;14.97;77.10
65207;SHT31;58477;48.072;11.970;2022-07-06T03:37:15;14.93;77.07
65207;SHT31;58477;48.072;11.970;2022-07-06T03:39:41;15.08;76.65
65207;SHT31;58477;48.072;11.970;2022-07-06T03:42:08;15.08;77.45
65207;SHT31;58477;48.072;11.970;2022-07-06T03:44:33;15.16;77.09
65207;SHT31;58477;48.072;11.970;2022-07-06T03:47:00;15.24;76.44
65207;SHT31;58477;48.072;11.970;2022-07-06T03:49:26;15.30;76.73
65207;SHT31;58477;48.072;11.970;2022-07-06T03:51:53;15.43;76.25
65207;SHT31;58477;48.072;11.970;2022-07-06T03:54:20;15.50;75.87
65207;SHT31;58477;48.072;11.970;2022-07-06T03:56:47;15.55;76.42
65207;SHT31;58477;48.072;11.970;2022-07-06T03:59:14;15.59;75.91
65207;SHT31;58477;48.072;11.970;2022-07-06T04:01:41;15.58;75.44
65207;SHT31;58477;48.072;11.970;2022-07-06T04:04:08;15.58;75.46
65207;SHT31;58477;48.072;11.970;2022-07-06T04:06:37;15.64;75.03
65207;SHT31;58477;48.072;11.970;2022-07-06T04:09:04;15.67;75.70
65207;SHT31;58477;48.072;11.970;2022-07-06T04:11:30;15.72;75.05
65207;SHT31;58477;48.072;11.970;2022-07-06T04:13:56;15.79;74.80
65207;SHT31;58477;48.072;11.970;2022-07-06T04:16:22;15.79;75.03
65207;SHT31;58477;48.072;11.970;2022-07-06T04:18:48;15.81;75.34
65207;SHT31;58477;48.072;11.970;2022-07-06T04:21:13;15.84;74.85
65207;SHT31;58477;48.072;11.970;2022-07-06T04:23:39;15.88;75.34
65207;SHT31;58477;48.072;11.970;2022-07-06T04:26:06;15.88;75.79
65207;SHT31;58477;48.072;11.970;2022-07-06T04:28:34;15.94;75.67
65207;SHT31;58477;48.072;11.970;2022-07-06T04:31:00;16.12;74.89
65207;SHT31;58477;48.072;11.970;2022-07-06T04:33:26;16.15;74.58
65207;SHT31;58477;48.072;11.970;2022-07-06T04:35:51;16.28;74.64
65207;SHT31;58477;48.072;11.970;2022-07-06T04:38:19;16.42;75.71
65207;SHT31;58477;48.072;11.970;2022-07-06T04:40:46;16.55;74.76
65207;SHT31;58477;48.072;11.970;2022-07-06T04:43:14;16.66;74.49
65207;SHT31;58477;48.072;11.970;2022-07-06T04:45:41;16.84;73.84
65207;SHT31;58477;48.072;11.970;2022-07-06T04:48:07;16.76;73.74
65207;SHT31;58477;48.072;11.970;2022-07-06T04:50:35;16.77;74.38
65207;SHT31;58477;48.072;11.970;2022-07-06T04:53:02;16.74;74.44
65207;SHT31;58477;48.072;11.970;2022-07-06T04:55:30;16.80;74.13
65207;SHT31;58477;48.072;11.970;2022-07-06T04:57:55;16.83;74.54
65207;SHT31;58477;48.072;11.970;2022-07-06T05:00:21;16.95;74.63
65207;SHT31;58477;48.072;11.970;2022-07-06T05:02:48;16.94;75.05
65207;SHT31;58477;48.072;11.970;2022-07-06T05:05:14;17.98;73.50
65207;SHT31;58477;48.072;11.970;2022-07-06T05:07:41;19.42;68.35
65207;SHT31;58477;48.072;11.970;2022-07-06T05:10:11;20.81;64.85
65207;SHT31;58477;48.072;11.970;2022-07-06T05:12:39;21.86;62.43
65207;SHT31;58477;48.072;11.970;2022-07-06T05:15:05;22.64;59.86
65207;SHT31;58477;48.072;11.970;2022-07-06T05:17:31;23.00;60.13
65207;SHT31;58477;48.072;11.970;2022-07-06T05:19:59;23.00;59.15
65207;SHT31;58477;48.072;11.970;2022-07-06T05:22:25;23.32;57.73
65207;SHT31;58477;48.072;11.970;2022-07-06T05:24:52;23.49;56.84
65207;SHT31;58477;48.072;11.970;2022-07-06T05:27:19;23.90;57.27
65207;SHT31;58477;48.072;11.970;2022-07-06T05:29:45;24.70;53.58
65207;SHT31;58477;48.072;11.970;2022-07-06T05:32:11;23.90;55.96
65207;SHT31;58477;48.072;11.970;2022-07-06T05:34:37;23.83;56.31
65207;SHT31;58477;48.072;11.970;2022-07-06T05:37:03;24.24;55.55
65207;SHT31;58477;48.072;11.970;2022-07-06T05:39:29;24.75;53.30
65207;SHT31;58477;48.072;11.970;2022-07-06T05:41:55;24.60;53.82
65207;SHT31;58477;48.072;11.970;2022-07-06T05:44:20;23.44;56.99
65207;SHT31;58477;48.072;11.970;2022-07-06T05:46:45;23.14;57.67
65207;SHT31;58477;48.072;11.970;2022-07-06T05:49:12;24.20;54.73
65207;SHT31;58477;48.072;11.970;2022-07-06T05:51:56;23.62;54.98
65207;SHT31;58477;48.072;11.970;2022-07-06T05:54:22;23.75;54.44
65207;SHT31;58477;48.072;11.970;2022-07-06T05:56:48;24.05;55.30
65207;SHT31;58477;48.072;11.970;2022-07-06T05:59:13;24.27;54.79
65207;SHT31;58477;48.072;11.970;2022-07-06T06:01:39;24.40;53.75
65207;SHT31;58477;48.072;11.970;2022-07-06T06:04:10;22.10;58.55
65207;SHT31;58477;48.072;11.970;2022-07-06T06:06:35;21.88;58.48
65207;SHT31;58477;48.072;11.970;2022-07-06T06:09:01;22.02;59.98
65207;SHT31;58477;48.072;11.970;2022-07-06T06:11:26;21.88;60.10
65207;SHT31;58477;48.072;11.970;2022-07-06T06:13:53;23.15;57.13
65207;SHT31;58477;48.072;11.970;2022-07-06T06:16:19;21.59;59.69
65207;SHT31;58477;48.072;11.970;2022-07-06T06:18:44;21.49;62.13
65207;SHT31;58477;48.072;11.970;2022-07-06T06:21:10;22.33;60.37
65207;SHT31;58477;48.072;11.970;2022-07-06T06:23:36;22.90;58.79
65207;SHT31;58477;48.072;11.970;2022-07-06T06:26:01;22.70;59.19
65207;SHT31;58477;48.072;11.970;2022-07-06T06:28:27;23.46;57.49
65207;SHT31;58477;48.072;11.970;2022-07-06T06:30:52;23.54;57.03
65207;SHT31;58477;48.072;11.970;2022-07-06T06:33:19;24.02;55.35
65207;SHT31;58477;48.072;11.970;2022-07-06T06:35:49;23.59;56.70
65207;SHT31;58477;48.072;11.970;2022-07-06T06:38:16;23.73;55.35
65207;SHT31;58477;48.072;11.970;2022-07-06T06:40:42;23.78;56.25
65207;SHT31;58477;48.072;11.970;2022-07-06T06:43:07;24.03;55.82
65207;SHT31;58477;48.072;11.970;2022-07-06T06:45:37;24.08;55.03
65207;SHT31;58477;48.072;11.970;2022-07-06T06:48:03;24.53;55.55
65207;SHT31;58477;48.072;11.970;2022-07-06T06:50:28;25.18;54.83
65207;SHT31;58477;48.072;11.970;2022-07-06T06:52:54;26.02;52.74
65207;SHT31;58477;48.072;11.970;2022-07-06T06:55:20;25.24;52.84
65207;SHT31;58477;48.072;11.970;2022-07-06T06:57:45;25.73;52.74
65207;SHT31;58477;48.072;11.970;2022-07-06T07:00:11;24.95;53.61
65207;SHT31;58477;48.072;11.970;2022-07-06T07:02:37;24.21;54.02
65207;SHT31;58477;48.072;11.970;2022-07-06T07:05:04;24.73;53.52
65207;SHT31;58477;48.072;11.970;2022-07-06T07:07:30;25.45;53.17
65207;SHT31;58477;48.072;11.970;2022-07-06T07:09:55;25.83;52.43
65207;SHT31;58477;48.072;11.970;2022-07-06T07:12:21;26.04;52.29
65207;SHT31;58477;48.072;11.970;2022-07-06T07:14:46;26.02;51.69
65207;SHT31;58477;48.072;11.970;2022-07-06T07:17:13;25.50;51.00
65207;SHT31;58477;48.072;11.970;2022-07-06T07:19:38;26.26;50.57
65207;SHT31;58477;48.072;11.970;2022-07-06T07:22:04;26.68;49.21
65207;SHT31;58477;48.072;11.970;2022-07-06T07:24:30;26.77;48.76
65207;SHT31;58477;48.072;11.970;2022-07-06T07:26:55;26.77;49.90
65207;SHT31;58477;48.072;11.970;2022-07-06T07:29:21;27.15;48.08
65207;SHT31;58477;48.072;11.970;2022-07-06T07:31:47;27.48;46.82
65207;SHT31;58477;48.072;11.970;2022-07-06T07:34:12;26.57;50.57
65207;SHT31;58477;48.072;11.970;2022-07-06T07:36:38;26.24;50.27
65207;SHT31;58477;48.072;11.970;2022-07-06T07:39:04;27.76;48.22
65207;SHT31;58477;48.072;11.970;2022-07-06T07:41:30;25.86;51.42
65207;SHT31;58477;48.072;11.970;2022-07-06T07:43:55;24.50;53.55
65207;SHT31;58477;48.072;11.970;2022-07-06T07:46:21;25.43;53.72
65207;SHT31;58477;48.072;11.970;2022-07-06T07:48:47;26.03;52.25
65207;SHT31;58477;48.072;11.970;2022-07-06T07:51:13;27.35;47.21
65207;SHT31;58477;48.072;11.970;2022-07-06T07:53:38;27.76;47.21
65207;SHT31;58477;48.072;11.970;2022-07-06T07:56:04;27.31;47.54
65207;SHT31;58477;48.072;11.970;2022-07-06T07:58:30;27.63;47.99
65207;SHT31;58477;48.072;11.970;2022-07-06T08:00:55;27.53;47.47
65207;SHT31;58477;48.072;11.970;2022-07-06T08:03:21;26.17;49.46
65207;SHT31;58477;48.072;11.970;2022-07-06T08:05:46;26.26;48.55
65207;SHT31;58477;48.072;11.970;2022-07-06T08:08:14;26.91;50.33
65207;SHT31;58477;48.072;11.970;2022-07-06T08:10:40;27.02;50.05
65207;SHT31;58477;48.072;11.970;2022-07-06T08:13:05;28.04;48.36
65207;SHT31;58477;48.072;11.970;2022-07-06T08:15:35;28.63;45.12
65207;SHT31;58477;48.072;11.970;2022-07-06T08:18:01;27.82;45.19
65207;SHT31;58477;48.072;11.970;2022-07-06T08:20:26;27.05;48.56
65207;SHT31;58477;48.072;11.970;2022-07-06T08:22:52;25.96;51.21
65207;SHT31;58477;48.072;11.970;2022-07-06T08:25:17;26.24;50.28
65207;SHT31;58477;48.072;11.970;2022-07-06T08:27:43;27.55;47.83
65207;SHT31;58477;48.072;11.970;2022-07-06T08:30:10;28.57;46.40
65207;SHT31;58477;48.072;11.970;2022-07-06T08:32:40;29.75;41.91
65207;SHT31;58477;48.072;11.970;2022-07-06T08:35:07;28.28;45.43
65207;SHT31;58477;48.072;11.970;2022-07-06T08:37:33;28.48;46.10
65207;SHT31;58477;48.072;11.970;2022-07-06T08:39:58;28.88;45.27
65207;SHT31;58477;48.072;11.970;2022-07-06T08:42:29;27.43;44.81
65207;SHT31;58477;48.072;11.970;2022-07-06T08:44:58;27.79;44.00
65207;SHT31;58477;48.072;11.970;2022-07-06T08:47:24;27.65;45.67
65207;SHT31;58477;48.072;11.970;2022-07-06T08:49:51;27.86;46.02
65207;SHT31;58477;48.072;11.970;2022-07-06T08:52:17;28.56;44.73
65207;SHT31;58477;48.072;11.970;2022-07-06T08:54:42;29.66;42.00
65207;SHT31;58477;48.072;11.970;2022-07-06T08:57:08;29.15;42.34
65207;SHT31;58477;48.072;11.970;2022-07-06T08:59:34;29.31;40.14
65207;SHT31;58477;48.072;11.970;2022-07-06T09:02:00;28.67;44.76
65207;SHT31;58477;48.072;11.970;2022-07-06T09:04:26;30.07;41.31
65207;SHT31;58477;48.072;11.970;2022-07-06T09:06:53;30.05;38.46
65207;SHT31;58477;48.072;11.970;2022-07-06T09:09:21;29.15;41.60
65207;SHT31;58477;48.072;11.970;2022-07-06T09:11:54;29.11;38.19
65207;SHT31;58477;48.072;11.970;2022-07-06T09:14:20;28.44;40.60
65207;SHT31;58477;48.072;11.970;2022-07-06T09:16:48;29.01;39.13
65207;SHT31;58477;48.072;11.970;2022-07-06T09:19:16;30.30;39.55
65207;SHT31;58477;48.072;11.970;2022-07-06T09:21:41;29.75;38.73
65207;SHT31;58477;48.072;11.970;2022-07-06T09:24:12;29.66;40.09
65207;SHT31;58477;48.072;11.970;2022-07-06T09:26:39;27.41;43.38
65207;SHT31;58477;48.072;11.970;2022-07-06T09:29:05;26.37;46.53
65207;SHT31;58477;48.072;11.970;2022-07-06T09:31:31;25.99;45.53
65207;SHT31;58477;48.072;11.970;2022-07-06T09:34:02;25.15;49.35
65207;SHT31;58477;48.072;11.970;2022-07-06T09:36:46;25.61;48.43
65207;SHT31;58477;48.072;11.970;2022-07-06T09:39:27;27.42;45.75
65207;SHT31;58477;48.072;11.970;2022-07-06T09:41:54;27.94;41.61
65207;SHT31;58477;48.072;11.970;2022-07-06T09:44:30;29.11;41.46
65207;SHT31;58477;48.072;11.970;2022-07-06T09:47:00;30.05;39.76
65207;SHT31;58477;48.072;11.970;2022-07-06T09:49:26;30.14;38.62
65207;SHT31;58477;48.072;11.970;2022-07-06T09:51:55;30.65;37.82
65207;SHT31;58477;48.072;11.970;2022-07-06T09:54:21;30.43;37.97
65207;SHT31;58477;48.072;11.970;2022-07-06T09:56:48;30.98;36.48
65207;SHT31;58477;48.072;11.970;2022-07-06T09:59:18;31.15;38.21
65207;SHT31;58477;48.072;11.970;2022-07-06T10:01:44;30.64;37.43
65207;SHT31;58477;48.072;11.970;2022-07-06T10:04:12;29.85;37.83
65207;SHT31;58477;48.072;11.970;2022-07-06T10:06:44;30.13;41.91
65207;SHT31;58477;48.072;11.970;2022-07-06T10:09:10;29.85;39.14
65207;SHT31;58477;48.072;11.970;2022-07-06T10:11:42;29.35;42.01
65207;SHT31;58477;48.072;11.970;2022-07-06T10:14:08;29.76;42.44
65207;SHT31;58477;48.072;11.970;2022-07-06T10:16:46;28.90;42.36
65207;SHT31;58477;48.072;11.970;2022-07-06T10:19:14;30.06;39.93
65207;SHT31;58477;48.072;11.970;2022-07-06T10:21:40;30.57;38.40
65207;SHT31;58477;48.072;11.970;2022-07-06T10:24:07;30.56;39.70
65207;SHT31;58477;48.072;11.970;2022-07-06T10:26:34;30.50;38.01
65207;SHT31;58477;48.072;11.970;2022-07-06T10:29:02;30.23;39.46
65207;SHT31;58477;48.072;11.970;2022-07-06T10:31:28;29.69;38.90
65207;SHT31;58477;48.072;11.970;2022-07-06T10:33:56;29.76;39.64
65207;SHT31;58477;48.072;11.970;2022-07-06T10:36:22;29.77;39.95
65207;SHT31;58477;48.072;11.970;2022-07-06T10:38:49;28.20;43.09
65207;SHT31;58477;48.072;11.970;2022-07-06T10:41:15;27.66;42.03
65207;SHT31;58477;48.072;11.970;2022-07-06T10:43:47;28.58;41.85
65207;SHT31;58477;48.072;11.970;2022-07-06T10:46:16;28.41;41.60
65207;SHT31;58477;48.072;11.970;2022-07-06T10:48:45;29.28;40.41
65207;SHT31;58477;48.072;11.970;2022-07-06T10:51:12;27.25;44.40
65207;SHT31;58477;48.072;11.970;2022-07-06T10:53:40;25.48;44.89
65207;SHT31;58477;48.072;11.970;2022-07-06T10:56:07;25.48;47.92
65207;SHT31;58477;48.072;11.970;2022-07-06T11:01:12;26.30;45.70
65207;SHT31;58477;48.072;11.970;2022-07-06T11:03:49;27.41;41.50
65207;SHT31;58477;48.072;11.970;2022-07-06T11:08:45;28.94;40.62
65207;SHT31;58477;48.072;11.970;2022-07-06T11:16:33;29.56;39.14
65207;SHT31;58477;48.072;11.970;2022-07-06T11:19:23;30.00;41.90
65207;SHT31;58477;48.072;11.970;2022-07-06T11:22:05;30.82;36.16
65207;SHT31;58477;48.072;11.970;2022-07-06T11:24:33;31.92;36.08
65207;SHT31;58477;48.072;11.970;2022-07-06T11:26:59;29.79;36.70
65207;SHT31;58477;48.072;11.970;2022-07-06T11:29:26;29.08;41.47
65207;SHT31;58477;48.072;11.970;2022-07-06T11:31:57;30.19;39.95
65207;SHT31;58477;48.072;11.970;2022-07-06T11:34:26;29.76;36.21
65207;SHT31;58477;48.072;11.970;2022-07-06T11:36:57;28.60;41.07
65207;SHT31;58477;48.072;11.970;2022-07-06T11:39:25;29.16;40.25
65207;SHT31;58477;48.072;11.970;2022-07-06T11:41:51;27.76;42.36
65207;SHT31;58477;48.072;11.970;2022-07-06T11:44:16;27.92;41.23
65207;SHT31;58477;48.072;11.970;2022-07-06T11:46:42;27.92;41.96
65207;SHT31;58477;48.072;11.970;2022-07-06T11:49:08;28.21;41.19
65207;SHT31;58477;48.072;11.970;2022-07-06T11:51:39;30.23;37.78
65207;SHT31;58477;48.072;11.970;2022-07-06T11:54:16;30.53;37.07
65207;SHT31;58477;48.072;11.970;2022-07-06T11:56:58;30.26;37.69
65207;SHT31;58477;48.072;11.970;2022-07-06T11:59:33;29.56;37.24
65207;SHT31;58477;48.072;11.970;2022-07-06T12:02:12;29.41;38.09
65207;SHT31;58477;48.072;11.970;2022-07-06T12:04:42;29.29;38.97
65207;SHT31;58477;48.072;11.970;2022-07-06T12:07:10;28.51;39.30
65207;SHT31;58477;48.072;11.970;2022-07-06T12:09:40;29.66;35.86
65207;SHT31;58477;48.072;11.970;2022-07-06T12:12:07;29.33;37.45
65207;SHT31;58477;48.072;11.970;2022-07-06T12:14:36;29.87;37.31
65207;SHT31;58477;48.072;11.970;2022-07-06T12:17:06;30.56;38.62
65207;SHT31;58477;48.072;11.970;2022-07-06T12:19:33;30.21;36.39
65207;SHT31;58477;48.072;11.970;2022-07-06T12:21:59;30.90;36.41
65207;SHT31;58477;48.072;11.970;2022-07-06T12:24:29;30.68;41.13
65207;SHT31;58477;48.072;11.970;2022-07-06T12:26:57;30.16;36.20
65207;SHT31;58477;48.072;11.970;2022-07-06T12:29:25;30.84;38.84
65207;SHT31;58477;48.072;11.970;2022-07-06T12:31:53;30.51;38.43
65207;SHT31;58477;48.072;11.970;2022-07-06T12:34:23;30.30;39.41
65207;SHT31;58477;48.072;11.970;2022-07-06T12:39:18;28.87;40.89
65207;SHT31;58477;48.072;11.970;2022-07-06T12:42:04;29.66;40.52
65207;SHT31;58477;48.072;11.970;2022-07-06T12:44:32;30.24;40.20
65207;SHT31;58477;48.072;11.970;2022-07-06T12:47:05;29.89;37.00
65207;SHT31;58477;48.072;11.970;2022-07-06T12:49:32;29.15;39.10
65207;SHT31;58477;48.072;11.970;2022-07-06T12:54:33;26.98;40.87
65207;SHT31;58477;48.072;11.970;2022-07-06T12:57:01;28.03;40.98
65207;SHT31;58477;48.072;11.970;2022-07-06T12:59:28;28.61;37.45
65207;SHT31;58477;48.072;11.970;2022-07-06T13:01:54;29.77;38.56
65207;SHT31;58477;48.072;11.970;2022-07-06T13:04:26;30.24;36.68
65207;SHT31;58477;48.072;11.970;2022-07-06T13:06:53;29.15;35.71
65207;SHT31;58477;48.072;11.970;2022-07-06T13:09:19;29.22;37.19
65207;SHT31;58477;48.072;11.970;2022-07-06T13:11:47;29.52;40.40
65207;SHT31;58477;48.072;11.970;2022-07-06T13:14:16;28.67;39.38
65207;SHT31;58477;48.072;11.970;2022-07-06T13:16:42;28.67;39.38
65207;SHT31;58477;48.072;11.970;2022-07-06T13:19:08;29.28;40.34
65207;SHT31;58477;48.072;11.970;2022-07-06T13:21:34;29.18;39.79
65207;SHT31;58477;48.072;11.970;2022-07-06T13:24:00;29.31;38.67
65207;SHT31;58477;48.072;11.970;2022-07-06T13:26:25;29.25;36.23
65207;SHT31;58477;48.072;11.970;2022-07-06T13:28:51;29.19;41.15
65207;SHT31;58477;48.072;11.970;2022-07-06T13:31:16;28.98;38.02
65207;SHT31;58477;48.072;11.970;2022-07-06T13:33:42;27.97;38.82
65207;SHT31;58477;48.072;11.970;2022-07-06T13:36:07;26.54;40.70
65207;SHT31;58477;48.072;11.970;2022-07-06T13:38:33;25.66;42.89
65207;SHT31;58477;48.072;11.970;2022-07-06T13:40:58;26.51;40.55
65207;SHT31;58477;48.072;11.970;2022-07-06T13:43:24;27.65;42.23
65207;SHT31;58477;48.072;11.970;2022-07-06T13:45:49;27.92;38.16
65207;SHT31;58477;48.072;11.970;2022-07-06T13:48:15;27.34;41.60
65207;SHT31;58477;48.072;11.970;2022-07-06T13:50:40;26.57;42.94
65207;SHT31;58477;48.072;11.970;2022-07-06T13:53:06;26.56;44.14
65207;SHT31;58477;48.072;11.970;2022-07-06T13:55:32;26.19;41.48
65207;SHT31;58477;48.072;11.970;2022-07-06T13:57:58;26.48;41.29
65207;SHT31;58477;48.072;11.970;2022-07-06T14:00:24;27.11;42.24
65207;SHT31;58477;48.072;11.970;2022-07-06T14:02:50;27.19;40.80
65207;SHT31;58477;48.072;11.970;2022-07-06T14:05:16;28.09;39.32
65207;SHT31;58477;48.072;11.970;2022-07-06T14:07:41;28.47;39.09
65207;SHT31;58477;48.072;11.970;2022-07-06T14:10:07;27.88;39.64
65207;SHT31;58477;48.072;11.970;2022-07-06T14:12:32;28.00;41.44
65207;SHT31;58477;48.072;11.970;2022-07-06T14:14:58;27.76;40.22
65207;SHT31;58477;48.072;11.970;2022-07-06T14:17:25;28.07;38.84
65207;SHT31;58477;48.072;11.970;2022-07-06T14:19:50;28.14;39.26
65207;SHT31;58477;48.072;11.970;2022-07-06T14:22:16;28.33;38.59
65207;SHT31;58477;48.072;11.970;2022-07-06T14:24:42;27.76;39.32
65207;SHT31;58477;48.072;11.970;2022-07-06T14:27:07;26.81;41.91
65207;SHT31;58477;48.072;11.970;2022-07-06T14:29:33;26.27;41.42
65207;SHT31;58477;48.072;11.970;2022-07-06T14:31:58;26.57;42.48
65207;SHT31;58477;48.072;11.970;2022-07-06T14:34:24;26.19;43.95
65207;SHT31;58477;48.072;11.970;2022-07-06T14:36:50;27.02;41.54
65207;SHT31;58477;48.072;11.970;2022-07-06T14:39:16;27.21;39.70
65207;SHT31;58477;48.072;11.970;2022-07-06T14:41:41;27.04;40.96
65207;SHT31;58477;48.072;11.970;2022-07-06T14:44:07;27.58;40.49
65207;SHT31;58477;48.072;11.970;2022-07-06T14:46:32;28.04;39.92
65207;SHT31;58477;48.072;11.970;2022-07-06T14:49:00;28.17;40.61
65207;SHT31;58477;48.072;11.970;2022-07-06T14:51:26;28.23;38.86
65207;SHT31;58477;48.072;11.970;2022-07-06T14:53:51;28.16;38.60
65207;SHT31;58477;48.072;11.970;2022-07-06T14:56:17;28.21;37.09
65207;SHT31;58477;48.072;11.970;2022-07-06T14:58:43;28.24;40.62
65207;SHT31;58477;48.072;11.970;2022-07-06T15:01:09;27.46;39.06
65207;SHT31;58477;48.072;11.970;2022-07-06T15:03:34;27.53;40.80
65207;SHT31;58477;48.072;11.970;2022-07-06T15:06:00;27.99;40.39
65207;SHT31;58477;48.072;11.970;2022-07-06T15:08:25;27.61;38.88
65207;SHT31;58477;48.072;11.970;2022-07-06T15:10:50;26.86;41.11
65207;SHT31;58477;48.072;11.970;2022-07-06T15:13:16;26.20;42.84
65207;SHT31;58477;48.072;11.970;2022-07-06T15:15:42;25.53;43.00
65207;SHT31;58477;48.072;11.970;2022-07-06T15:18:09;25.86;42.77
65207;SHT31;58477;48.072;11.970;2022-07-06T15:20:34;26.26;42.19
65207;SHT31;58477;48.072;11.970;2022-07-06T15:22:59;26.23;44.57
65207;SHT31;58477;48.072;11.970;2022-07-06T15:25:25;26.44;43.55
65207;SHT31;58477;48.072;11.970;2022-07-06T15:27:51;26.71;40.87